Station info - map view · info · telemetry · weather · raw · status · beacons · messages · bulletins · browse · moving · my account
Callsign, ship name or locator: Clear       
It is possible to search using wildcards (*?) after a prefix. Example: OH*
APRS station 7N3RLX-5 - show graphs
Map loading...
Comment: 433.000MHz Driving
Mic-E message: Off duty
Location: 36°03.96' N 138°15.22' E - locator PM96DB05KU - show map - static map
7.4 miles Northeast bearing 48° from Chino, Nagano, Japan [?]
8.1 miles East bearing 76° from Suwa, Nagano, Japan
71.1 miles Northwest bearing 300° from Sagamihara, Kanagawa, Japan
75.5 miles North bearing 355° from Shizuoka-shi, Shizuoka, Japan
Last position: 2020-12-02 10:54:24 EST (22h22m ago)
2020-12-03 00:54:24 JST local time at Chino, Japan [?]
Altitude: 4262 ft
Course: 46°
Speed: 18 MPH
Device: Yaesu: FTM-300D (rig)
Last path: 7N3RLX-5>SVPSY6 via WIDE1-1,qAR,7N3RLX-12 (good)
Positions stored: 7225
Packet rate: 127 seconds between packets on average during 6239 seconds.
Other SSIDs: 7N3RLX 7N3RLX-10 7N3RLX-11 7N3RLX-12 7N3RLX-13 7N3RLX-14 7N3RLX-15 7N3RLX-4 7N3RLX-9
Stations near current position of 7N3RLX-5 - show more
callsign distance last heard - EST      callsign distance last heard - EST
7N3RLX-100.8 miles 164°2020-12-03 09:10:22 7N3RLX-120.8 miles 163°2020-12-03 09:10:22
7N3RLX-140.8 miles 161°2020-12-03 09:10:22 JA/NN-0313.5 miles 42°2020-11-22 22:09:33
JJ1XGO/03.5 miles 42°2020-11-12 20:37:02 JA/NN-0324.0 miles 68°2020-11-05 22:05:31
JA/NN-0764.1 miles 309°2020-11-22 22:36:36 JO2TAI/04.1 miles 309°2020-11-21 21:50:51
JA/NN-0374.4 miles 82°2020-11-05 19:08:22 EL3116105.7 miles 217°2020-12-03 07:42:31
JA-0RZX5.9 miles 230°2020-11-23 03:01:00 JR0CST-96.0 miles 220°2020-12-03 05:10:00
JA/NN-2196.2 miles 342°2020-11-22 21:19:14 JR0CST-106.3 miles 217°2020-12-03 07:14:50
JA/NN-1017.2 miles 332°2020-11-15 21:18:49 JE0TGY-129.0 miles 251°2020-11-30 02:47:12
JR2XJN9.0 miles 135°2020-11-28 22:54:27 JA/YN-0069.2 miles 135°2020-11-11 21:29:53
JA/YN-0099.9 miles 143°2020-11-22 23:04:35 JJ0VPV-910.2 miles 181°2020-12-03 04:59:44
Stations which heard 7N3RLX-5 directly on radio –
callsign pkts first heard - EST last heard longest (tx => rx) longest at - EST
JA1KWV-1 6 2020-12-02 08:20:58 2020-12-02 08:39:47 PM95SP > PM95TR 5.9 miles 52° 2020-12-02 08:39:47
JA1YKX-2 1 2020-12-02 09:19:38 2020-12-02 09:19:38 PM95MP > PM95SM 29.5 miles 107° 2020-12-02 09:19:38
JF1AJE-10 5 2020-12-02 08:50:04 2020-12-02 09:10:56 PM95OO > PM95QR 14.0 miles 55° 2020-12-02 09:10:56
JQ1YZZ-10 3 2020-12-02 08:17:58 2020-12-02 08:32:38 PM95VQ > PM95UN 9.6 miles 210° 2020-12-02 08:17:58
JQ1YWK-10 9 2020-12-02 08:49:21 2020-12-02 09:15:28 PM95NO > PM95QP 13.1 miles 86° 2020-12-02 09:15:28
JH0HYX-10 2 2020-12-02 10:33:14 2020-12-02 10:36:53 PM95CW > PM86XE 22.9 miles 317° 2020-12-02 10:33:14
JO1YDG-10 11 2020-12-02 09:13:26 2020-12-02 10:16:20 PM95NO > PM95GO 35.7 miles 268° 2020-12-02 09:13:26
JR0YPJ-10 1 2020-12-02 10:39:03 2020-12-02 10:39:03 PM95CX > PM96AB 12.4 miles 295° 2020-12-02 10:39:03
JA2YEP-2 1 2020-12-02 10:48:38 2020-12-02 10:48:38 PM96CA > PM84GU 126.5 miles 230° 2020-12-02 10:48:38
JQ1ZIF-2 2 2020-12-02 09:16:32 2020-12-02 09:17:38 PM95NP > QM05CK 62.9 miles 101° 2020-12-02 09:17:38
JN1YGG-2 1 2020-12-02 09:45:40 2020-12-02 09:45:40 PM95HP > PM95FQ 12.2 miles 296° 2020-12-02 09:45:40
7J1YAK-2 1 2020-12-02 09:27:18 2020-12-02 09:27:18 PM95LO > PM95JL 11.1 miles 222° 2020-12-02 09:27:18
JS1YAB-2 5 2020-12-02 08:25:30 2020-12-02 09:11:28 PM95UQ > PM95OP 25.4 miles 262° 2020-12-02 08:25:30
7N3RLX-13 1 2020-12-02 08:17:17 2020-12-02 08:17:17 PM95VQ > PM95VR 3.8 miles 48° 2020-12-02 08:17:17
7N3RLX-12 18 2020-12-02 10:18:42 2020-12-02 10:54:24 PM95DV > PM96DB 11.7 miles 350° 2020-12-02 10:18:42
JE1EER-10 2 2020-12-02 08:15:44 2020-12-02 08:16:46 PM95VQ > PM95WR 4.2 miles 61° 2020-12-02 08:16:46
JN1JTN-2 2 2020-12-02 09:47:39 2020-12-02 10:25:38 PM95HO > PM96NK 62.7 miles 25° 2020-12-02 09:47:39
JQ1YDA-10 10 2020-12-02 08:19:48 2020-12-02 09:00:52 PM95QQ > PM95SP 12.5 miles 103° 2020-12-02 09:00:52
JS1YEF-10 2 2020-12-02 08:45:47 2020-12-02 08:47:30 PM95RQ > PM95RQ 3.3 miles 72° 2020-12-02 08:47:30

Only position packets which were originated by the station are shown here. The range statistics show some extra long hops, because some digipeaters do not correctly add themselves to the digipeater path. Please check the raw packets.
About this site
This page shows real-time information collected from the Automatic Position Reporting System Internet network (APRS-IS). APRS is used by amateur (ham) radio operators to transmit real-time position information, weather data, telemetry and messages over the radio. A vehicle equipped with a GPS receiver, a VHF transmitter or HF transceiver and a small computer device called a tracker transmits it's location, speed and course in a small data packet, which is then received by a nearby iGate receiving site which forwards the packet on the Internet. Systems connected to the Internet can send information on the APRS-IS without a radio transmitter, or collect and display information transmitted anywhere in the world.
User guide · FAQ · Blog · Discussion group · Linking to aprs.fi · AIS sites · Service status · Database statistics · Advertising on aprs.fi · Technical details · API · Change log · Planned changes · Credits and thanks · Terms Of Service · iPhone/iPad APRS